createdAt,value
2023-03-05T00:02:14.211Z,84.50
2023-03-05T00:04:46.732Z,84.50
2023-03-05T00:07:19.749Z,84.70
2023-03-05T00:09:52.173Z,84.80
2023-03-05T00:12:24.994Z,84.50
2023-03-05T00:15:00.561Z,84.80
2023-03-05T00:17:33.413Z,84.70
2023-03-05T00:20:06.384Z,84.70
2023-03-05T00:22:39.157Z,85.00
2023-03-05T00:25:11.651Z,85.30
2023-03-05T00:27:44.377Z,85.70
2023-03-05T00:30:16.825Z,86.30
2023-03-05T00:32:49.583Z,86.90
2023-03-05T00:35:22.096Z,87.50
2023-03-05T00:37:54.974Z,88.20
2023-03-05T00:40:27.449Z,88.60
2023-03-05T00:43:00.246Z,89.60
2023-03-05T00:45:33.277Z,89.80
2023-03-05T00:48:06.249Z,90.20
2023-03-05T00:50:38.670Z,90.20
2023-03-05T00:53:11.407Z,90.30
2023-03-05T00:55:43.938Z,90.50
2023-03-05T00:58:16.705Z,90.70
2023-03-05T01:00:50.742Z,91.20
2023-03-05T01:03:23.790Z,91.30
2023-03-05T01:05:56.575Z,91.50
2023-03-05T01:08:29.461Z,91.80
2023-03-05T01:11:02.760Z,91.80
2023-03-05T01:13:36.049Z,92.30
2023-03-05T01:16:08.806Z,92.60
2023-03-05T01:18:41.904Z,93.00
2023-03-05T01:21:14.459Z,93.20
2023-03-05T01:23:47.152Z,93.40
2023-03-05T01:26:19.647Z,93.70
2023-03-05T01:28:52.398Z,93.90
2023-03-05T01:31:24.848Z,94.50
2023-03-05T01:34:00.192Z,94.90
2023-03-05T01:36:32.806Z,95.50
2023-03-05T01:39:05.481Z,96.00
2023-03-05T01:41:37.930Z,96.50
2023-03-05T01:44:30.310Z,96.90
2023-03-05T01:47:02.850Z,97.80
2023-03-05T01:49:41.138Z,98.40
2023-03-05T01:52:17.904Z,98.90
2023-03-05T01:54:57.653Z,99.50
2023-03-05T01:57:37.695Z,99.50
2023-03-05T02:00:16.458Z,99.80
2023-03-05T02:02:51.303Z,99.90
2023-03-05T02:05:31.239Z,99.90
2023-03-05T02:08:07.430Z,99.90
2023-03-05T02:10:44.304Z,99.90
2023-03-05T02:13:26.560Z,99.90
2023-03-05T02:16:00.817Z,99.90
2023-03-05T02:18:33.328Z,99.90
2023-03-05T02:21:10.841Z,99.90
2023-03-05T02:23:43.275Z,99.90
2023-03-05T02:26:16.012Z,99.90
2023-03-05T02:28:57.253Z,99.90
2023-03-05T02:31:31.313Z,99.90
2023-03-05T02:34:03.924Z,99.90
2023-03-05T02:36:36.602Z,99.90
2023-03-05T02:39:09.914Z,99.90
2023-03-05T02:41:42.791Z,99.90
2023-03-05T02:44:15.346Z,99.90
2023-03-05T02:46:48.342Z,99.90
2023-03-05T02:49:20.731Z,99.90
2023-03-05T02:51:53.636Z,99.90
2023-03-05T02:54:26.120Z,99.90
2023-03-05T02:56:58.937Z,99.90
2023-03-05T02:59:31.368Z,99.90
2023-03-05T03:02:04.228Z,99.90
2023-03-05T03:04:36.704Z,99.90
2023-03-05T03:07:10.197Z,99.90
2023-03-05T03:09:45.657Z,99.90
2023-03-05T03:12:18.496Z,99.90
2023-03-05T03:14:50.918Z,99.90
2023-03-05T03:17:23.707Z,99.90
2023-03-05T03:19:56.096Z,99.90
2023-03-05T03:22:30.969Z,99.90
2023-03-05T03:25:04.443Z,99.90
2023-03-05T03:27:37.503Z,99.90
2023-03-05T03:30:11.127Z,99.90
2023-03-05T03:32:43.885Z,99.90
2023-03-05T03:35:16.341Z,99.90
2023-03-05T03:37:49.433Z,99.90
2023-03-05T03:40:21.897Z,99.90
2023-03-05T03:42:54.844Z,99.90
2023-03-05T03:45:27.257Z,99.90
2023-03-05T03:47:59.930Z,99.90
2023-03-05T03:50:32.371Z,99.90
2023-03-05T03:53:05.130Z,99.90
2023-03-05T03:55:37.559Z,99.90
2023-03-05T03:58:10.601Z,99.90
2023-03-05T04:00:43.028Z,99.90
2023-03-05T04:03:15.714Z,99.90
2023-03-05T04:05:48.095Z,99.90
2023-03-05T04:08:20.785Z,99.90
2023-03-05T04:10:53.174Z,99.90
2023-03-05T04:13:25.866Z,99.90
2023-03-05T04:15:58.732Z,99.90
2023-03-05T04:18:32.582Z,99.90
2023-03-05T04:21:05.601Z,99.90
2023-03-05T04:23:39.111Z,99.90
2023-03-05T04:26:11.668Z,99.90
2023-03-05T04:28:44.405Z,99.90
2023-03-05T04:31:20.572Z,99.90
2023-03-05T04:33:53.430Z,99.90
2023-03-05T04:36:25.963Z,99.90
2023-03-05T04:38:58.745Z,99.90
2023-03-05T04:41:31.207Z,99.90
2023-03-05T04:44:04.106Z,99.90
2023-03-05T04:46:36.631Z,99.90
2023-03-05T04:49:09.809Z,99.90
2023-03-05T04:51:42.423Z,99.90
2023-03-05T04:54:15.241Z,99.90
2023-03-05T04:56:47.649Z,99.90
2023-03-05T04:59:20.358Z,99.90
2023-03-05T05:01:52.875Z,99.90
2023-03-05T05:04:25.649Z,99.90
2023-03-05T05:06:58.886Z,99.90
2023-03-05T05:09:31.568Z,99.90
2023-03-05T05:12:04.358Z,99.90
2023-03-05T05:14:37.505Z,99.90
2023-03-05T05:17:09.955Z,99.90
2023-03-05T05:19:43.052Z,99.90
2023-03-05T05:22:15.771Z,99.90
2023-03-05T05:24:48.466Z,99.90
2023-03-05T05:27:21.444Z,99.90
2023-03-05T05:29:54.157Z,99.90
2023-03-05T05:32:26.629Z,99.90
2023-03-05T05:34:59.590Z,99.90
2023-03-05T05:37:32.044Z,99.90
2023-03-05T05:40:05.791Z,99.90
2023-03-05T05:42:38.530Z,99.90
2023-03-05T05:45:11.889Z,99.90
2023-03-05T05:47:44.294Z,99.90
2023-03-05T05:50:18.295Z,99.90
2023-03-05T05:52:52.131Z,99.90
2023-03-05T05:55:24.801Z,99.90
2023-03-05T05:57:57.183Z,99.90
2023-03-05T06:00:29.916Z,99.90
2023-03-05T06:03:02.418Z,99.90
2023-03-05T06:05:35.854Z,99.90
2023-03-05T06:08:08.700Z,99.90
2023-03-05T06:10:41.434Z,99.90
2023-03-05T06:13:13.791Z,99.90
2023-03-05T06:15:54.978Z,99.90
2023-03-05T06:18:27.782Z,99.90
2023-03-05T06:21:04.111Z,99.90
2023-03-05T06:23:36.533Z,99.90
2023-03-05T06:26:11.293Z,99.90
2023-03-05T06:28:43.860Z,99.90
2023-03-05T06:31:28.145Z,99.90
2023-03-05T06:34:01.417Z,99.90
2023-03-05T06:36:34.236Z,99.90
2023-03-05T06:39:06.873Z,99.90
2023-03-05T06:41:39.747Z,99.90
2023-03-05T06:44:12.615Z,99.90
2023-03-05T06:46:45.516Z,99.90
2023-03-05T06:49:17.925Z,99.90
2023-03-05T06:51:50.634Z,99.90
2023-03-05T06:54:23.098Z,99.90
2023-03-05T06:56:55.783Z,99.90
2023-03-05T06:59:28.455Z,99.90
2023-03-05T07:02:01.194Z,99.90
2023-03-05T07:04:38.928Z,99.90
2023-03-05T07:07:11.568Z,99.90
2023-03-05T07:09:45.968Z,99.90
2023-03-05T07:12:19.047Z,99.90
2023-03-05T07:14:51.564Z,99.90
2023-03-05T07:17:24.303Z,99.90
2023-03-05T07:19:56.671Z,99.90
2023-03-05T07:22:29.673Z,99.90
2023-03-05T07:25:04.270Z,99.90
2023-03-05T07:27:38.491Z,99.90
2023-03-05T07:30:11.723Z,99.90
2023-03-05T07:32:44.451Z,99.90
2023-03-05T07:35:17.057Z,99.90
2023-03-05T07:37:55.895Z,99.90
2023-03-05T07:40:30.850Z,99.90
2023-03-05T07:43:03.569Z,99.90
2023-03-05T07:45:40.140Z,99.90
2023-03-05T07:48:20.886Z,99.90
2023-03-05T07:51:05.029Z,99.90
2023-03-05T07:53:38.104Z,99.90
2023-03-05T07:56:11.132Z,99.90
2023-03-05T07:58:45.555Z,99.90
2023-03-05T08:01:18.179Z,99.90
2023-03-05T08:03:50.974Z,99.90
2023-03-05T08:06:23.362Z,99.90
2023-03-05T08:08:57.053Z,99.90
2023-03-05T08:11:31.808Z,99.90
2023-03-05T08:14:05.018Z,99.90
2023-03-05T08:16:38.541Z,99.90
2023-03-05T08:19:11.623Z,99.90
2023-03-05T08:21:44.713Z,99.90
2023-03-05T08:24:18.558Z,99.90
2023-03-05T08:26:50.947Z,99.90
2023-03-05T08:29:24.609Z,99.90
2023-03-05T08:31:57.011Z,99.90
2023-03-05T08:34:30.011Z,99.90
2023-03-05T08:37:02.420Z,99.90
2023-03-05T08:39:37.874Z,99.90
2023-03-05T08:42:10.283Z,99.90
2023-03-05T08:44:42.950Z,99.90
2023-03-05T08:47:16.143Z,99.90
2023-03-05T08:49:51.503Z,99.90
2023-03-05T08:52:26.435Z,99.90
2023-03-05T08:54:59.103Z,99.90
2023-03-05T08:57:31.557Z,99.90
2023-03-05T09:00:04.795Z,99.90
2023-03-05T09:02:37.728Z,99.90
2023-03-05T09:05:15.132Z,99.90
2023-03-05T09:07:47.826Z,99.90
2023-03-05T09:13:15.376Z,99.90
2023-03-05T09:15:58.982Z,99.90
2023-03-05T09:18:32.520Z,99.90
2023-03-05T09:21:13.490Z,99.90
2023-03-05T09:23:47.728Z,99.90
2023-03-05T09:26:20.641Z,99.90
2023-03-05T09:28:53.185Z,99.90
2023-03-05T09:31:26.170Z,99.90
2023-03-05T10:14:40.494Z,99.90
2023-03-05T10:17:24.999Z,99.90
2023-03-05T10:20:23.769Z,99.90
2023-03-05T10:23:08.516Z,99.90
2023-03-05T10:26:11.207Z,99.90
2023-03-05T10:29:16.220Z,99.90
2023-03-05T10:31:58.563Z,99.90
2023-03-05T10:34:58.728Z,99.90
2023-03-05T10:37:52.606Z,99.90
2023-03-05T10:40:29.996Z,99.90
2023-03-05T10:43:30.663Z,99.90
2023-03-05T10:46:05.033Z,99.90
2023-03-05T10:48:41.654Z,99.90
2023-03-05T10:51:53.308Z,99.90
2023-03-05T10:54:36.153Z,99.90
2023-03-05T10:57:21.503Z,99.90
2023-03-05T11:00:14.936Z,99.90
2023-03-05T11:03:01.924Z,99.90
2023-03-05T11:05:42.390Z,99.90
2023-03-05T11:08:37.057Z,99.90
2023-03-05T11:11:23.612Z,99.90
2023-03-05T11:14:02.486Z,99.90
2023-03-05T11:16:47.327Z,99.90
2023-03-05T11:19:40.558Z,99.90
2023-03-05T11:22:23.807Z,99.90
2023-03-05T11:25:10.833Z,99.90
2023-03-05T11:27:59.027Z,99.90
2023-03-05T11:30:34.761Z,99.90
2023-03-05T11:33:14.993Z,99.90
2023-03-05T11:35:48.740Z,99.90
2023-03-05T11:38:26.734Z,99.90
2023-03-05T11:40:59.424Z,99.90
2023-03-05T11:43:34.221Z,99.90
2023-03-05T11:46:08.929Z,99.90
2023-03-05T11:48:45.288Z,99.90
2023-03-05T11:51:43.440Z,99.90
2023-03-05T11:54:23.054Z,99.90
2023-03-05T11:56:56.539Z,99.90
2023-03-05T11:59:41.206Z,99.90
2023-03-05T12:02:21.560Z,99.90
2023-03-05T12:04:54.224Z,99.90
2023-03-05T12:07:36.023Z,99.90
2023-03-05T12:10:17.332Z,99.90
2023-03-05T12:13:12.691Z,99.90
2023-03-05T12:16:09.179Z,99.90
2023-03-05T12:19:06.900Z,99.90
2023-03-05T12:21:44.575Z,99.90
2023-03-05T12:27:56.313Z,99.90
2023-03-05T12:30:49.193Z,99.90
2023-03-05T12:33:43.272Z,99.90
2023-03-05T12:36:17.724Z,99.90
2023-03-05T12:38:55.077Z,99.90
2023-03-05T12:41:36.828Z,99.90
2023-03-05T12:44:18.767Z,99.90
2023-03-05T12:47:23.540Z,99.90
2023-03-05T12:50:09.037Z,99.90
2023-03-05T12:52:51.056Z,99.90
2023-03-05T12:56:17.374Z,99.90
2023-03-05T12:58:55.720Z,99.90
2023-03-05T13:01:50.982Z,99.90
2023-03-05T13:04:31.974Z,99.90
2023-03-05T13:07:16.105Z,99.90
2023-03-05T13:09:59.773Z,99.90
2023-03-05T13:12:32.598Z,99.90
2023-03-05T13:15:09.376Z,99.90
2023-03-05T14:43:11.608Z,94.60
2023-03-05T15:02:26.999Z,99.90
2023-03-05T15:05:00.155Z,99.90
2023-03-05T15:10:02.070Z,99.90
2023-03-05T15:12:35.298Z,99.90
2023-03-05T15:15:08.739Z,99.90
2023-03-05T15:17:44.496Z,99.90
2023-03-05T15:20:21.112Z,99.90
2023-03-05T15:22:54.083Z,99.90
2023-03-05T15:25:28.808Z,99.90
2023-03-05T15:28:02.553Z,99.90
2023-03-05T15:30:37.614Z,99.90
2023-03-05T15:33:13.591Z,99.90
2023-03-05T15:35:46.576Z,99.90
2023-03-05T15:38:19.656Z,99.90
2023-03-05T15:40:52.488Z,99.90
2023-03-05T15:43:27.740Z,99.90
2023-03-05T15:46:01.761Z,99.90
2023-03-05T15:48:34.621Z,99.90
2023-03-05T15:51:07.741Z,99.90
2023-03-05T15:53:43.024Z,99.90
2023-03-05T15:56:19.377Z,99.90
2023-03-05T15:58:53.795Z,99.90
2023-03-05T16:01:26.859Z,99.90
2023-03-05T16:04:00.548Z,99.90
2023-03-05T16:06:35.149Z,99.90
2023-03-05T16:09:08.396Z,99.90
2023-03-05T16:11:49.285Z,99.90
2023-03-05T16:14:27.979Z,99.90
2023-03-05T16:17:03.951Z,99.90
2023-03-05T16:19:41.975Z,99.90
2023-03-05T16:22:14.821Z,99.90
2023-03-05T16:24:48.612Z,99.90
2023-03-05T16:27:22.656Z,99.90
2023-03-05T16:29:55.955Z,99.90
2023-03-05T16:32:29.261Z,99.90
2023-03-05T16:35:04.485Z,99.90
2023-03-05T16:37:38.322Z,99.90
2023-03-05T16:40:12.739Z,99.90
2023-03-05T16:42:47.232Z,99.90
2023-03-05T16:45:20.622Z,99.90
2023-03-05T16:47:54.355Z,99.90
2023-03-05T16:50:27.136Z,99.90
2023-03-05T16:52:59.639Z,99.90
2023-03-05T16:55:39.107Z,99.90
2023-03-05T17:01:20.776Z,99.90
2023-03-05T17:03:56.041Z,99.90
2023-03-05T17:06:32.338Z,99.90
2023-03-05T17:09:05.412Z,99.90
2023-03-05T17:11:38.894Z,99.90
2023-03-05T17:14:12.458Z,99.90
2023-03-05T17:16:47.808Z,99.90
2023-03-05T17:19:20.767Z,99.90
2023-03-05T17:21:58.052Z,99.90
2023-03-05T17:24:32.992Z,99.90
2023-03-05T17:27:06.012Z,99.90
2023-03-05T17:29:41.127Z,99.90
2023-03-05T17:32:14.858Z,99.90
2023-03-05T17:34:52.515Z,99.90
2023-03-05T17:37:25.618Z,99.90
2023-03-05T17:39:58.280Z,99.90
2023-03-05T17:42:36.600Z,99.90
2023-03-05T17:45:09.635Z,99.90
2023-03-05T17:47:42.808Z,99.90
2023-03-05T17:50:16.097Z,99.90
2023-03-05T17:52:49.622Z,99.90
2023-03-05T17:55:26.031Z,99.90
2023-03-05T17:58:02.850Z,99.90
2023-03-05T18:00:37.302Z,99.90
2023-03-05T18:03:14.069Z,99.90
2023-03-05T18:05:48.236Z,99.90
2023-03-05T18:08:28.016Z,99.90
2023-03-05T18:11:02.209Z,99.90
2023-03-05T18:13:38.757Z,99.90
2023-03-05T18:16:16.986Z,99.90
2023-03-05T18:18:51.143Z,99.90
2023-03-05T18:21:28.618Z,99.90
2023-03-05T18:24:08.698Z,99.90
2023-03-05T18:26:44.595Z,99.90
2023-03-05T18:29:22.280Z,99.90
2023-03-05T18:31:57.671Z,99.90
2023-03-05T18:34:30.853Z,99.90
2023-03-05T18:37:04.254Z,99.90
2023-03-05T18:39:39.674Z,99.90
2023-03-05T18:42:14.191Z,99.90
2023-03-05T18:44:47.620Z,99.90
2023-03-05T18:47:20.368Z,99.90
2023-03-05T18:49:53.839Z,99.90
2023-03-05T18:52:28.031Z,99.90
2023-03-05T18:55:01.098Z,99.90
2023-03-05T18:57:34.306Z,99.90
2023-03-05T19:00:13.799Z,99.90
2023-03-05T19:02:47.914Z,99.90
2023-03-05T19:05:21.392Z,99.90
2023-03-05T19:08:01.265Z,99.90
2023-03-05T19:10:39.991Z,99.90
2023-03-05T19:13:33.271Z,99.90
2023-03-05T19:16:24.282Z,99.90
2023-03-05T19:19:15.955Z,99.90
2023-03-05T19:22:13.739Z,99.90
2023-03-05T19:24:48.572Z,99.90
2023-03-05T19:27:21.575Z,99.90
2023-03-05T19:29:54.733Z,99.90
2023-03-05T19:32:27.902Z,99.90
2023-03-05T19:35:03.023Z,99.90
2023-03-05T19:37:36.595Z,99.90
2023-03-05T19:40:15.833Z,99.90
2023-03-05T19:42:52.079Z,99.90
2023-03-05T19:45:26.303Z,99.90
2023-03-05T19:47:59.419Z,99.90
2023-03-05T19:50:34.644Z,99.90
2023-03-05T19:53:09.306Z,99.90
2023-03-05T19:55:48.343Z,99.90
2023-03-05T19:58:23.659Z,99.90
2023-03-05T20:00:56.371Z,99.90
2023-03-05T20:03:37.111Z,99.90
2023-03-05T20:06:11.263Z,99.90
2023-03-05T20:08:48.107Z,99.90
2023-03-05T20:11:24.552Z,99.90
2023-03-05T20:13:58.197Z,99.90
2023-03-05T20:16:37.582Z,99.90
2023-03-05T20:19:27.013Z,99.90
2023-03-05T20:22:02.473Z,99.90
2023-03-05T20:24:35.382Z,99.90
2023-03-05T20:27:09.162Z,99.90
2023-03-05T20:29:49.879Z,99.90
2023-03-05T20:32:25.564Z,99.90
2023-03-05T20:35:02.022Z,99.90
2023-03-05T20:37:40.418Z,99.90
2023-03-05T20:40:14.055Z,99.90
2023-03-05T20:42:52.955Z,99.90
2023-03-05T20:45:31.023Z,99.90
2023-03-05T20:48:06.394Z,99.90
2023-03-05T20:50:43.182Z,99.90
2023-03-05T20:56:08.894Z,99.90
2023-03-05T20:58:58.594Z,99.90
2023-03-05T21:01:44.009Z,99.90
2023-03-05T21:04:17.617Z,99.90
2023-03-05T21:06:58.277Z,99.90
2023-03-05T21:09:38.857Z,99.90
2023-03-05T21:12:13.192Z,99.90
2023-03-05T21:14:51.054Z,99.90
2023-03-05T21:17:27.529Z,99.90
2023-03-05T21:20:01.381Z,99.90
2023-03-05T21:22:35.296Z,99.90
2023-03-05T21:25:30.005Z,99.90
2023-03-05T21:28:12.088Z,99.90
2023-03-05T21:30:46.953Z,99.90
2023-03-05T21:33:25.994Z,99.90
2023-03-05T21:35:58.752Z,99.90
2023-03-05T21:38:33.984Z,99.90
2023-03-05T21:41:06.738Z,99.90
2023-03-05T21:43:40.001Z,99.90
2023-03-05T21:46:12.867Z,99.90
2023-03-05T21:48:45.699Z,99.90
2023-03-05T21:51:19.336Z,99.90
2023-03-05T21:53:52.124Z,99.90
2023-03-05T21:56:28.148Z,99.90
2023-03-05T21:59:02.116Z,99.90
2023-03-05T22:01:34.710Z,99.90
2023-03-05T22:04:07.429Z,99.90
2023-03-05T22:06:40.853Z,99.90
2023-03-05T22:09:13.950Z,99.90
2023-03-05T22:11:46.433Z,99.90
2023-03-05T22:14:19.134Z,99.90
2023-03-05T22:16:53.336Z,99.90
2023-03-05T22:19:26.124Z,99.90
2023-03-05T22:21:58.606Z,99.90
2023-03-05T22:24:31.292Z,99.90
2023-03-05T22:27:03.883Z,99.90
2023-03-05T22:29:36.824Z,99.90
2023-03-05T22:32:09.319Z,99.90
2023-03-05T22:34:42.006Z,99.90
2023-03-05T22:37:14.810Z,99.90
2023-03-05T22:39:47.466Z,99.90
2023-03-05T22:42:19.886Z,99.90
2023-03-05T22:44:59.088Z,99.90
2023-03-05T22:47:31.490Z,99.90
2023-03-05T22:50:05.289Z,99.90
2023-03-05T22:52:37.778Z,99.90
2023-03-05T22:55:13.059Z,99.90
2023-03-05T22:57:45.958Z,99.90
2023-03-05T23:00:23.725Z,99.90
2023-03-05T23:02:56.816Z,99.90
2023-03-05T23:05:29.650Z,99.90
2023-03-05T23:08:02.182Z,99.90
2023-03-05T23:10:35.073Z,99.90
2023-03-05T23:13:10.134Z,99.90
2023-03-05T23:15:42.871Z,99.90
2023-03-05T23:18:15.353Z,99.90
2023-03-05T23:20:48.008Z,99.90
2023-03-05T23:23:20.893Z,99.90
2023-03-05T23:25:53.598Z,99.90
2023-03-05T23:28:25.959Z,99.90
2023-03-05T23:30:58.749Z,99.90
2023-03-05T23:33:31.228Z,99.90
2023-03-05T23:36:04.492Z,99.90
2023-03-05T23:38:36.875Z,99.90
2023-03-05T23:41:09.903Z,99.90
2023-03-05T23:43:42.349Z,99.90
2023-03-05T23:46:15.418Z,99.90
2023-03-05T23:48:47.813Z,99.90
2023-03-05T23:51:20.441Z,99.90
2023-03-05T23:53:52.913Z,99.90
2023-03-05T23:56:25.706Z,99.90
2023-03-05T23:59:00.573Z,99.90
